This is the latest recevied weather packets stored in our database for station/object NR0Q. If no packets are shown the sender has not sent any weather packets the latest 10 day(s).
| Time | Temp. | Humidity | Pressure | Rain* | Wind** | Luminosity | Snow |
|---|---|---|---|---|---|---|---|
| 1778342401 | 22.22° C | 74% | 1012.5 hPa | 0 mm | - | - | - |
| 1778341501 | 21.11° C | 79% | 1012.5 hPa | 0 mm | - | - | - |
| 1778340602 | 20.56° C | 82% | 1012.5 hPa | 0 mm | - | - | - |
| 1778339702 | 20° C | 83% | 1012.5 hPa | 0 mm | - | - | - |
| 1778338802 | 19.44° C | 83% | 1012.5 hPa | 0 mm | - | - | - |
| 1778337901 | 18.89° C | 86% | 1012.5 hPa | 0 mm | - | - | - |
| 1778337001 | 17.78° C | 90% | 1012.5 hPa | 0 mm | - | - | - |
| 1778336101 | 16.11° C | 93% | 1012.5 hPa | 0 mm | - | - | - |
| 1778335201 | 15° C | 97% | 1012.5 hPa | 0 mm | - | - | - |
| 1778333401 | 13.33° C | 97% | 1011.5 hPa | 0 mm | - | - | - |
| 1778332507 | 13.33° C | 95% | 1011.5 hPa | 0 mm | - | - | - |
| 1778331601 | 12.78° C | 99% | 1011.5 hPa | 0 mm | - | - | - |
| 1778330701 | 11.67° C | 99% | 1011.5 hPa | 0 mm | - | - | - |
| 1778329801 | 11.11° C | 99% | 1011.5 hPa | 0 mm | - | - | - |
| 1778328901 | 11.11° C | 97% | 1011.5 hPa | 0 mm | - | - | - |
| 1778328001 | 9.44° C | 99% | 1011.5 hPa | 0 mm | - | - | - |
| 1778327102 | 9.44° C | 99% | 1011.5 hPa | 0 mm | - | - | - |
| 1778326201 | 9.44° C | 99% | 1010.5 hPa | 0 mm | - | - | - |
| 1778325301 | 9.44° C | 99% | 1010.5 hPa | 0 mm | - | - | - |
| 1778324401 | 10° C | 99% | 1010.5 hPa | 0 mm | - | - | - |
| 1778323502 | 10° C | 99% | 1010.5 hPa | 0 mm | - | - | - |
| 1778322601 | 10° C | 99% | 1010.5 hPa | 0 mm | - | - | - |
| 1778321701 | 10.56° C | 99% | 1010.5 hPa | 0 mm | - | - | - |
| 1778320801 | 10.56° C | 99% | 1010.5 hPa | 0 mm | - | - | - |
| 1778319901 | 10.56° C | 99% | 1010.5 hPa | 0 mm | - | - | - |
* Rain latest hour (hover to see other rain measurements)
** Current wind speed in m/s (hover to see current wind gust speed)